Time;durP1;ratioP1;P1;durP2;ratioP2;P2;SDS_P1;SDS_P2;PMS_P1;PMS_P2;Temp;Humidity;BMP_temperature;BMP_pressure;BME280_temperature;BME280_humidity;BME280_pressure;Samples;Min_cycle;Max_cycle;Signal;HPM_P1;HPM_P2
2022/01/05 00:02:12;;;;;;;0.75;0.25;;;;;;;5.75;75.72;98200.03;5076519;28;20032;-56
2022/01/05 00:04:38;;;;;;;1.20;0.40;;;;;;;5.69;76.16;98206.28;5094468;28;20032;-55
2022/01/05 00:07:04;;;;;;;0.60;0.25;;;;;;;5.73;76.12;98203.56;5094518;28;20043;-54
2022/01/05 00:09:30;;;;;;;0.85;0.28;;;;;;;5.73;75.73;98207.03;5089802;28;20035;-55
2022/01/05 00:11:56;;;;;;;1.10;0.40;;;;;;;5.69;75.90;98205.44;5073866;28;20391;-54
2022/01/05 00:14:21;;;;;;;1.10;0.40;;;;;;;5.74;75.67;98213.94;5082049;28;20041;-54
2022/01/05 00:16:47;;;;;;;2.15;0.40;;;;;;;5.67;75.50;98223.75;5073917;28;20036;-53
2022/01/05 00:19:12;;;;;;;0.75;0.30;;;;;;;5.77;75.26;98229.47;5074073;28;20374;-55
2022/01/05 00:21:40;;;;;;;0.43;0.22;;;;;;;5.79;74.91;98225.06;5087102;28;20036;-52
2022/01/05 00:24:06;;;;;;;2.05;0.40;;;;;;;5.60;75.24;98231.84;5094173;28;20032;-54
2022/01/05 00:26:31;;;;;;;3.33;0.40;;;;;;;5.68;75.50;98240.22;5089956;28;20418;-55
2022/01/05 00:28:57;;;;;;;0.65;0.22;;;;;;;5.42;75.90;98239.38;5073940;28;20040;-55
2022/01/05 00:31:22;;;;;;;0.98;0.30;;;;;;;5.40;76.46;98248.16;5088686;28;20101;-55
2022/01/05 00:33:47;;;;;;;1.92;0.30;;;;;;;5.35;77.29;98252.69;5087008;28;20056;-55
2022/01/05 00:36:13;;;;;;;0.60;0.22;;;;;;;5.27;78.27;98265.13;5073777;28;20043;-56
2022/01/05 00:38:38;;;;;;;1.55;0.40;;;;;;;5.07;79.86;98274.44;5073763;28;20432;-54
2022/01/05 00:41:04;;;;;;;1.60;0.30;;;;;;;5.00;80.66;98279.91;5073804;28;20043;-56
2022/01/05 00:43:30;;;;;;;1.50;0.20;;;;;;;5.02;80.79;98291.94;5073512;28;20143;-55
2022/01/05 00:45:56;;;;;;;0.90;0.10;;;;;;;4.98;81.57;98298.16;5086569;28;20066;-52
2022/01/05 00:48:21;;;;;;;0.63;0.22;;;;;;;5.04;80.99;98300.56;5082081;28;20040;-53
2022/01/05 00:50:46;;;;;;;0.82;0.30;;;;;;;5.20;80.26;98298.31;5087122;28;20788;-55
2022/01/05 00:53:12;;;;;;;0.32;0.20;;;;;;;5.31;79.55;98303.19;5093783;28;20036;-56
2022/01/05 00:55:37;;;;;;;2.50;0.60;;;;;;;5.27;78.43;98304.19;5093200;28;20032;-54
2022/01/05 00:58:03;;;;;;;4.43;0.40;;;;;;;5.26;76.97;98311.13;5093317;28;20030;-55
2022/01/05 01:00:28;;;;;;;2.22;0.47;;;;;;;5.36;76.03;98306.47;5092860;28;20119;-55
2022/01/05 01:02:53;;;;;;;2.05;0.40;;;;;;;5.45;75.58;98308.75;5093403;28;20072;-53
2022/01/05 01:05:19;;;;;;;2.47;0.43;;;;;;;5.47;74.89;98306.97;5093566;28;20109;-53
2022/01/05 01:07:45;;;;;;;1.65;0.50;;;;;;;5.45;75.00;98311.34;5091465;28;20485;-55
2022/01/05 01:10:11;;;;;;;2.53;0.43;;;;;;;5.38;75.38;98315.91;5088064;28;20369;-52
2022/01/05 01:12:36;;;;;;;4.38;0.90;;;;;;;5.35;75.43;98320.41;5077609;28;20525;-51
2022/01/05 01:15:07;;;;;;;1.52;0.43;;;;;;;5.19;75.62;98315.69;5077494;28;20055;-52
2022/01/05 01:17:33;;;;;;;1.58;0.38;;;;;;;5.15;76.52;98315.84;5076915;28;20055;-55
2022/01/05 01:19:58;;;;;;;2.25;0.50;;;;;;;5.02;77.15;98314.50;5084563;28;20468;-55
2022/01/05 01:22:26;;;;;;;1.85;0.70;;;;;;;4.90;77.79;98311.41;5077222;28;20032;-55
2022/01/05 01:24:51;;;;;;;2.40;0.45;;;;;;;4.85;78.31;98315.06;5078154;28;20032;-54
2022/01/05 01:27:17;;;;;;;2.05;0.40;;;;;;;4.74;79.13;98328.38;5077191;28;20507;-54
2022/01/05 01:29:42;;;;;;;3.30;0.63;;;;;;;4.57;79.90;98309.84;5077161;28;20102;-54
2022/01/05 01:32:07;;;;;;;1.17;0.30;;;;;;;4.50;80.42;98321.34;5077200;28;20396;-54
2022/01/05 01:34:33;;;;;;;2.65;0.30;;;;;;;4.44;80.79;98320.63;5076396;28;20049;-55
2022/01/05 01:36:58;;;;;;;2.15;0.45;;;;;;;4.37;81.28;98319.09;5088982;28;20044;-54
2022/01/05 01:39:24;;;;;;;3.80;0.40;;;;;;;4.26;82.20;98326.34;5097131;28;20048;-53
2022/01/05 01:41:49;;;;;;;3.53;0.40;;;;;;;4.22;82.60;98322.13;5097150;28;20040;-54
2022/01/05 01:44:16;;;;;;;2.25;0.40;;;;;;;4.25;82.07;98310.81;5078163;28;20428;-53
2022/01/05 01:46:42;;;;;;;5.22;0.85;;;;;;;4.20;81.33;98322.19;5076642;28;20072;-54
2022/01/05 01:49:08;;;;;;;2.05;0.47;;;;;;;4.34;80.75;98320.94;5077839;28;20170;-55
2022/01/05 01:51:33;;;;;;;2.97;0.68;;;;;;;4.31;80.34;98313.22;5076670;28;20032;-51
2022/01/05 01:53:59;;;;;;;1.55;0.60;;;;;;;4.29;80.26;98326.28;5092857;28;20525;-54
2022/01/05 01:56:25;;;;;;;1.60;0.47;;;;;;;4.25;80.63;98316.00;5096681;28;20032;-55
2022/01/05 01:58:51;;;;;;;2.45;0.70;;;;;;;4.24;80.84;98327.31;5080498;28;20033;-53
2022/01/05 02:01:17;;;;;;;2.13;0.52;;;;;;;4.10;81.34;98320.75;5081421;28;20036;-54
2022/01/05 02:03:42;;;;;;;1.75;0.50;;;;;;;4.07;81.51;98315.66;5082076;28;20043;-57
2022/01/05 02:06:08;;;;;;;4.47;0.88;;;;;;;4.03;81.95;98316.63;5082856;28;20028;-55
2022/01/05 02:08:36;;;;;;;3.13;0.50;;;;;;;3.95;82.27;98319.44;5090059;28;20051;-56
2022/01/05 02:11:03;;;;;;;1.40;0.40;;;;;;;4.01;82.70;98322.75;5096855;28;20111;-54
2022/01/05 02:13:28;;;;;;;2.03;0.45;;;;;;;3.98;83.04;98328.03;5095348;28;20028;-52
2022/01/05 02:15:54;;;;;;;3.50;0.70;;;;;;;3.89;83.39;98331.75;5096510;28;20036;-54
2022/01/05 02:21:12;;;;;;;1.10;0.60;;;;;;;3.93;82.84;98331.59;5095199;28;20101;-54
2022/01/05 02:23:38;;;;;;;3.13;0.70;;;;;;;3.94;83.17;98335.91;5076194;28;20047;-54
2022/01/05 02:26:05;;;;;;;2.25;1.13;;;;;;;3.91;83.05;98338.59;5078350;28;20540;-54
2022/01/05 02:28:31;;;;;;;3.50;0.90;;;;;;;3.90;83.08;98336.03;5076111;28;20116;-51
2022/01/05 02:30:57;;;;;;;3.65;1.00;;;;;;;3.86;83.38;98342.22;5075827;28;20050;-53
2022/01/05 02:33:24;;;;;;;1.83;0.50;;;;;;;3.94;83.16;98353.25;5075938;28;20455;-55
2022/01/05 02:35:51;;;;;;;2.00;0.55;;;;;;;4.01;82.83;98356.53;5076166;28;20024;-52
2022/01/05 02:38:21;;;;;;;2.85;0.85;;;;;;;4.00;82.76;98350.50;5093539;28;20493;-54
2022/01/05 02:40:46;;;;;;;4.28;1.02;;;;;;;3.94;82.65;98358.44;5095631;28;20081;-54
2022/01/05 02:43:12;;;;;;;3.50;0.70;;;;;;;3.94;82.94;98366.22;5093996;28;20032;-55
2022/01/05 02:45:37;;;;;;;3.30;1.00;;;;;;;3.81;83.07;98370.06;5075707;28;20028;-53
2022/01/05 02:48:04;;;;;;;2.50;0.70;;;;;;;3.71;83.87;98372.06;5075621;28;20024;-55
2022/01/05 02:50:30;;;;;;;3.88;0.70;;;;;;;3.73;83.93;98369.41;5075107;28;20075;-52
2022/01/05 02:52:55;;;;;;;4.07;0.60;;;;;;;3.71;83.85;98372.06;5075034;28;20037;-54
2022/01/05 02:55:20;;;;;;;3.10;0.77;;;;;;;3.67;84.01;98368.69;5073953;28;20032;-52
2022/01/05 02:57:46;;;;;;;2.25;0.40;;;;;;;3.63;84.02;98366.19;5080245;28;20482;-54
2022/01/05 03:00:13;;;;;;;2.53;0.50;;;;;;;3.64;84.53;98362.72;5075110;28;20040;-54
2022/01/05 03:02:39;;;;;;;1.75;0.32;;;;;;;3.57;84.58;98361.16;5075741;28;20036;-55
2022/01/05 03:05:05;;;;;;;1.13;0.38;;;;;;;3.53;84.72;98367.31;5083925;28;20085;-52
2022/01/05 03:07:33;;;;;;;1.48;0.70;;;;;;;3.51;84.71;98367.38;5095603;28;20035;-54
2022/01/05 03:09:58;;;;;;;2.95;0.55;;;;;;;3.44;84.84;98371.00;5094588;28;20035;-54
2022/01/05 03:12:23;;;;;;;3.60;0.50;;;;;;;3.40;85.07;98359.00;5095524;28;20031;-54
2022/01/05 03:14:49;;;;;;;2.35;0.57;;;;;;;3.31;85.21;98356.59;5095558;28;20036;-53
2022/01/05 03:17:14;;;;;;;3.47;0.60;;;;;;;3.28;85.77;98360.16;5094672;28;20123;-53
2022/01/05 03:19:40;;;;;;;2.70;0.70;;;;;;;3.25;85.83;98361.97;5092806;28;20085;-52
2022/01/05 03:22:05;;;;;;;2.75;0.65;;;;;;;3.16;86.09;98366.47;5082789;28;20033;-54
2022/01/05 03:24:30;;;;;;;2.00;0.60;;;;;;;3.14;86.19;98368.25;5074937;28;20036;-52
2022/01/05 03:26:56;;;;;;;1.48;0.60;;;;;;;3.16;86.36;98370.81;5075109;28;20112;-56
2022/01/05 03:29:22;;;;;;;2.83;0.70;;;;;;;3.12;86.50;98364.00;5074586;28;20047;-52
2022/01/05 03:31:48;;;;;;;1.77;0.38;;;;;;;3.18;86.16;98353.47;5074273;28;20063;-52
2022/01/05 03:34:18;;;;;;;1.13;0.52;;;;;;;3.20;86.17;98360.34;5073358;28;20512;-55
2022/01/05 03:36:43;;;;;;;1.88;0.50;;;;;;;3.21;85.93;98359.44;5079984;28;20075;-56
2022/01/05 03:39:09;;;;;;;2.10;0.70;;;;;;;3.27;85.73;98362.75;5094413;28;20535;-54
2022/01/05 03:41:34;;;;;;;5.97;0.60;;;;;;;3.33;85.46;98371.25;5095003;28;20028;-53
2022/01/05 03:43:59;;;;;;;1.58;0.40;;;;;;;3.34;85.41;98370.38;5085691;28;20037;-54
2022/01/05 03:46:25;;;;;;;3.63;0.52;;;;;;;3.38;85.14;98372.00;5074552;28;20029;-51
2022/01/05 03:48:50;;;;;;;1.92;0.40;;;;;;;3.40;84.81;98374.56;5074539;28;20029;-54
2022/01/05 03:51:16;;;;;;;1.83;0.70;;;;;;;3.40;84.78;98371.97;5083657;28;20036;-53
2022/01/05 03:53:41;;;;;;;1.10;0.60;;;;;;;3.44;84.71;98373.59;5094575;28;20063;-53
2022/01/05 03:56:06;;;;;;;1.80;0.60;;;;;;;3.34;84.69;98372.97;5094507;28;20063;-53
2022/01/05 03:58:32;;;;;;;3.00;0.70;;;;;;;3.36;84.68;98368.59;5094442;28;20419;-51
2022/01/05 04:00:57;;;;;;;1.33;0.40;;;;;;;3.37;84.69;98375.50;5094465;28;20044;-53
2022/01/05 04:03:22;;;;;;;2.08;0.63;;;;;;;3.37;84.73;98375.50;5094411;28;20043;-54
2022/01/05 04:05:48;;;;;;;1.45;0.50;;;;;;;3.36;84.56;98367.75;5093482;28;20036;-50
2022/01/05 04:08:13;;;;;;;2.63;0.90;;;;;;;3.36;84.88;98370.34;5094131;28;20032;-52
2022/01/05 04:10:39;;;;;;;2.80;0.63;;;;;;;3.39;84.74;98375.44;5088585;28;20495;-53
2022/01/05 04:13:04;;;;;;;3.15;0.80;;;;;;;3.39;84.58;98372.84;5074028;28;20456;-51
2022/01/05 04:15:30;;;;;;;2.30;0.55;;;;;;;3.40;84.69;98369.38;5078706;28;20479;-55
2022/01/05 04:17:55;;;;;;;3.28;0.70;;;;;;;3.42;84.60;98375.38;5092921;28;20044;-54
2022/01/05 04:20:21;;;;;;;1.27;0.68;;;;;;;3.42;84.48;98378.81;5093587;28;20063;-53
2022/01/05 04:22:47;;;;;;;2.10;0.90;;;;;;;3.38;84.19;98373.75;5093228;28;20476;-54
2022/01/05 04:25:13;;;;;;;3.20;1.00;;;;;;;3.32;84.47;98373.91;5093498;28;20032;-53
2022/01/05 04:27:39;;;;;;;2.88;0.90;;;;;;;3.28;84.78;98380.06;5094208;28;20608;-55
2022/01/05 04:30:06;;;;;;;2.90;0.90;;;;;;;3.25;84.82;98380.97;5092614;28;20067;-55
2022/01/05 04:32:32;;;;;;;3.78;1.20;;;;;;;3.22;84.65;98376.69;5093175;28;20056;-51
2022/01/05 04:34:57;;;;;;;3.10;1.10;;;;;;;3.18;85.00;98364.69;5088013;28;20496;-54
2022/01/05 04:37:23;;;;;;;3.22;1.10;;;;;;;3.18;84.88;98364.69;5090118;28;20088;-54
2022/01/05 04:39:50;;;;;;;3.72;0.90;;;;;;;3.18;84.94;98353.47;5093482;28;20118;-55
2022/01/05 04:42:15;;;;;;;3.25;1.38;;;;;;;3.19;84.70;98352.56;5091598;28;20036;-52
2022/01/05 04:44:41;;;;;;;4.68;1.15;;;;;;;3.19;84.74;98357.75;5080470;28;20158;-56
2022/01/05 04:47:08;;;;;;;6.53;1.80;;;;;;;3.16;84.76;98363.88;5072756;28;20025;-55
2022/01/05 04:49:34;;;;;;;4.65;1.45;;;;;;;3.15;84.85;98367.38;5072777;28;20045;-55
2022/01/05 04:51:59;;;;;;;3.90;1.50;;;;;;;3.15;85.11;98361.31;5084126;28;20045;-55
2022/01/05 04:54:25;;;;;;;4.35;1.90;;;;;;;3.20;84.77;98362.94;5078179;28;20399;-55
2022/01/05 04:56:51;;;;;;;3.65;1.17;;;;;;;3.27;84.85;98358.44;5087340;28;20066;-54
2022/01/05 04:59:16;;;;;;;4.65;1.40;;;;;;;3.37;84.28;98369.44;5093086;28;20043;-55
2022/01/05 05:01:42;;;;;;;7.00;1.70;;;;;;;3.45;84.10;98378.75;5084911;28;20032;-54
2022/01/05 05:04:07;;;;;;;3.58;1.48;;;;;;;3.52;83.45;98374.25;5073429;28;20094;-54
2022/01/05 05:06:33;;;;;;;3.97;1.85;;;;;;;3.58;83.51;98368.91;5073351;28;20327;-53
2022/01/05 05:08:58;;;;;;;4.97;1.88;;;;;;;3.66;82.83;98371.31;5076326;28;20036;-54
2022/01/05 05:11:24;;;;;;;6.47;2.10;;;;;;;3.72;82.53;98370.31;5090963;28;20525;-54
2022/01/05 05:13:49;;;;;;;5.38;2.40;;;;;;;3.74;82.14;98376.31;5084501;28;20032;-55
2022/01/05 05:16:14;;;;;;;4.68;2.00;;;;;;;3.75;82.09;98365.00;5086606;28;20115;-55
2022/01/05 05:18:40;;;;;;;4.95;2.35;;;;;;;3.79;81.59;98370.13;5074546;28;20104;-56
2022/01/05 05:21:05;;;;;;;5.07;2.55;;;;;;;3.86;81.53;98373.38;5081861;28;20122;-55
2022/01/05 05:23:31;;;;;;;6.55;2.80;;;;;;;3.99;81.36;98390.38;5076135;28;20431;-56
2022/01/05 05:25:56;;;;;;;5.88;2.95;;;;;;;4.15;80.42;98380.41;5076699;28;20039;-55
2022/01/05 05:28:22;;;;;;;6.03;2.85;;;;;;;4.32;79.72;98388.59;5074347;28;20040;-55
2022/01/05 05:30:47;;;;;;;4.85;2.63;;;;;;;4.42;79.17;98389.16;5093045;28;20101;-55
2022/01/05 05:33:13;;;;;;;4.93;2.63;;;;;;;4.53;78.60;98384.53;5088346;28;20058;-55
2022/01/05 05:35:41;;;;;;;5.13;2.25;;;;;;;4.59;77.96;98396.50;5079765;28;20038;-54
2022/01/05 05:38:07;;;;;;;5.53;2.30;;;;;;;4.61;77.70;98395.53;5082115;28;20533;-54
2022/01/05 05:40:32;;;;;;;4.35;2.13;;;;;;;4.65;77.71;98397.16;5079365;28;20033;-54
2022/01/05 05:42:57;;;;;;;5.05;2.22;;;;;;;4.76;77.39;98393.41;5073194;28;20459;-53
2022/01/05 05:45:23;;;;;;;5.80;2.55;;;;;;;4.80;76.79;98398.47;5072924;28;20028;-54
2022/01/05 05:47:48;;;;;;;8.50;3.28;;;;;;;4.77;76.77;98406.34;5072972;28;20044;-55
2022/01/05 05:50:14;;;;;;;7.40;3.83;;;;;;;4.82;76.86;98394.06;5072511;28;20064;-55
2022/01/05 05:52:40;;;;;;;5.93;3.58;;;;;;;4.93;76.60;98385.94;5073306;28;20033;-55
2022/01/05 05:55:06;;;;;;;6.00;2.88;;;;;;;5.06;76.26;98389.84;5073860;28;20055;-56
2022/01/05 05:57:31;;;;;;;7.55;2.50;;;;;;;5.10;75.76;98391.47;5075818;28;20104;-55
2022/01/05 05:59:56;;;;;;;6.30;2.90;;;;;;;5.10;75.58;98394.06;5076554;28;20041;-54
2022/01/05 06:02:22;;;;;;;4.25;2.17;;;;;;;5.14;75.63;98389.63;5076506;28;20036;-56
2022/01/05 06:04:47;;;;;;;5.18;2.85;;;;;;;5.10;75.60;98393.22;5076458;28;20481;-53
2022/01/05 06:07:12;;;;;;;6.53;3.42;;;;;;;5.13;75.55;98393.97;5076922;28;20033;-53
2022/01/05 06:09:38;;;;;;;7.20;3.90;;;;;;;5.19;75.40;98405.97;5076477;28;20442;-55
2022/01/05 06:12:04;;;;;;;7.97;4.32;;;;;;;5.23;75.18;98407.56;5076298;28;20024;-54
2022/01/05 06:14:29;;;;;;;7.55;4.10;;;;;;;5.26;74.95;98398.78;5074893;28;20388;-55
2022/01/05 06:16:55;;;;;;;7.63;3.90;;;;;;;5.25;74.94;98397.09;5076076;28;20067;-55
2022/01/05 06:19:20;;;;;;;5.18;2.97;;;;;;;5.24;74.83;98405.81;5075846;28;20051;-55
2022/01/05 06:21:46;;;;;;;5.68;2.22;;;;;;;5.18;74.92;98417.25;5075773;28;20068;-54
2022/01/05 06:24:12;;;;;;;5.22;2.22;;;;;;;5.09;75.12;98428.81;5075931;28;20032;-56
2022/01/05 06:26:37;;;;;;;3.58;2.08;;;;;;;5.04;75.20;98420.31;5075920;28;20032;-54
2022/01/05 06:29:03;;;;;;;4.03;2.15;;;;;;;5.00;75.51;98417.84;5076041;28;20040;-54
2022/01/05 06:31:28;;;;;;;5.88;1.85;;;;;;;4.83;75.78;98418.34;5076108;28;20082;-55
2022/01/05 06:33:54;;;;;;;5.25;1.95;;;;;;;4.87;76.05;98427.78;5075782;28;20078;-55
2022/01/05 06:36:19;;;;;;;3.78;1.77;;;;;;;4.87;76.11;98428.63;5076189;28;20464;-55
2022/01/05 06:38:45;;;;;;;6.40;2.05;;;;;;;4.91;76.09;98429.38;5076040;28;20032;-57
2022/01/05 06:41:10;;;;;;;3.55;2.33;;;;;;;4.97;76.00;98436.16;5075782;28;20067;-56
2022/01/05 06:43:35;;;;;;;6.43;3.05;;;;;;;4.90;76.13;98431.09;5075658;28;20028;-57
2022/01/05 06:46:01;;;;;;;7.32;3.78;;;;;;;4.88;75.99;98440.72;5075659;28;20057;-56
2022/01/05 06:48:26;;;;;;;6.15;2.95;;;;;;;4.81;76.32;98433.16;5074230;28;20037;-57
2022/01/05 06:50:52;;;;;;;6.57;3.20;;;;;;;4.70;76.67;98434.28;5075365;28;20127;-57
2022/01/05 06:53:17;;;;;;;8.15;3.28;;;;;;;4.64;77.04;98433.63;5075656;28;20025;-58
2022/01/05 06:55:43;;;;;;;10.40;4.63;;;;;;;4.52;77.61;98436.59;5075007;28;20133;-58
2022/01/05 06:58:08;;;;;;;9.43;4.53;;;;;;;4.48;77.94;98427.16;5075258;28;20031;-57
2022/01/05 07:00:33;;;;;;;10.02;4.90;;;;;;;4.49;78.31;98426.25;5075232;28;20032;-57
2022/01/05 07:02:59;;;;;;;10.50;4.53;;;;;;;4.42;78.29;98425.56;5075081;28;20028;-59
2022/01/05 07:05:24;;;;;;;7.50;3.22;;;;;;;4.34;79.08;98425.78;5075030;28;20573;-57
2022/01/05 07:07:50;;;;;;;7.32;3.25;;;;;;;4.26;79.63;98414.75;5074428;28;20047;-57
2022/01/05 07:10:15;;;;;;;8.15;2.70;;;;;;;4.24;80.00;98420.91;5075161;28;20119;-57
2022/01/05 07:12:41;;;;;;;2.78;1.52;;;;;;;4.17;79.85;98428.84;5075054;28;20044;-57
2022/01/05 07:15:08;;;;;;;5.20;1.75;;;;;;;4.14;80.21;98421.13;5075059;28;20033;-58
2022/01/05 07:17:34;;;;;;;3.92;1.83;;;;;;;4.12;80.26;98440.28;5074954;28;20029;-57
2022/01/05 07:19:59;;;;;;;4.35;2.05;;;;;;;4.12;80.37;98438.53;5074792;28;20043;-57
2022/01/05 07:22:25;;;;;;;5.70;2.67;;;;;;;4.18;80.62;98435.75;5074913;28;20029;-58
2022/01/05 07:24:50;;;;;;;5.05;2.42;;;;;;;4.31;80.03;98428.50;5075188;28;20036;-57
2022/01/05 07:27:16;;;;;;;4.57;2.40;;;;;;;4.44;79.41;98432.44;5074805;28;20040;-58
2022/01/05 07:29:42;;;;;;;6.03;2.92;;;;;;;4.56;78.96;98422.59;5074843;28;20086;-57
2022/01/05 07:32:07;;;;;;;5.40;2.65;;;;;;;4.64;78.46;98424.09;5075118;28;20115;-57
2022/01/05 07:34:33;;;;;;;3.90;1.90;;;;;;;4.65;78.11;98422.31;5074201;28;20115;-58
2022/01/05 07:36:59;;;;;;;5.55;2.08;;;;;;;4.72;77.70;98423.88;5074472;28;20035;-56
2022/01/05 07:39:24;;;;;;;4.63;2.65;;;;;;;4.58;77.85;98429.44;5074750;28;20353;-55
2022/01/05 07:41:50;;;;;;;5.85;2.67;;;;;;;4.65;77.92;98433.59;5074824;28;20059;-56
2022/01/05 07:44:15;;;;;;;7.80;3.83;;;;;;;4.66;77.98;98432.69;5074741;28;20032;-57
2022/01/05 07:46:40;;;;;;;7.50;3.88;;;;;;;4.54;78.35;98443.44;5074295;28;20115;-57
2022/01/05 07:49:06;;;;;;;4.28;3.08;;;;;;;4.58;78.64;98445.06;5074044;28;20059;-56
2022/01/05 07:51:32;;;;;;;8.57;3.42;;;;;;;4.53;78.71;98448.69;5074314;28;20085;-55
2022/01/05 07:53:57;;;;;;;7.85;3.17;;;;;;;4.53;78.53;98441.75;5074222;28;20033;-56
2022/01/05 07:56:23;;;;;;;5.65;2.88;;;;;;;4.57;78.52;98435.56;5073870;28;20124;-57
2022/01/05 07:58:49;;;;;;;4.97;3.03;;;;;;;4.50;78.37;98430.56;5073788;28;20036;-57
2022/01/05 08:01:18;;;;;;;5.53;3.40;;;;;;;4.56;78.31;98418.25;5073778;28;20032;-57
2022/01/05 08:03:44;;;;;;;5.22;2.38;;;;;;;4.68;77.88;98420.50;5073881;28;20101;-56
2022/01/05 08:06:09;;;;;;;7.50;3.15;;;;;;;4.76;77.59;98429.84;5073910;28;20127;-56
2022/01/05 08:08:35;;;;;;;6.50;3.42;;;;;;;4.74;77.63;98416.00;5074055;28;20036;-57
2022/01/05 08:11:00;;;;;;;6.32;3.80;;;;;;;4.68;78.01;98424.84;5073937;28;20036;-56
2022/01/05 08:13:26;;;;;;;7.45;4.57;;;;;;;4.67;78.11;98417.94;5073833;28;20028;-57
2022/01/05 08:15:52;;;;;;;8.32;5.15;;;;;;;4.92;77.47;98411.13;5073719;28;20032;-57
2022/01/05 08:18:18;;;;;;;8.00;5.07;;;;;;;4.88;77.16;98416.47;5084384;28;20048;-56
2022/01/05 08:20:44;;;;;;;6.57;4.20;;;;;;;4.97;76.95;98428.34;5091089;28;20446;-57
2022/01/05 08:23:14;;;;;;;7.30;4.43;;;;;;;5.01;76.79;98415.19;5087514;28;20059;-56
2022/01/05 08:25:39;;;;;;;6.57;3.90;;;;;;;4.97;76.88;98410.97;5086859;28;20387;-57
2022/01/05 08:28:04;;;;;;;7.85;4.03;;;;;;;5.04;76.59;98420.31;5081501;28;20047;-57
2022/01/05 08:30:33;;;;;;;6.32;4.05;;;;;;;5.01;76.57;98425.59;5083420;28;20037;-58
2022/01/05 08:33:00;;;;;;;7.10;3.17;;;;;;;4.91;76.74;98424.19;5073721;28;20072;-55
2022/01/05 08:35:26;;;;;;;6.60;3.15;;;;;;;4.96;76.99;98429.25;5073761;28;20123;-56
2022/01/05 08:37:52;;;;;;;5.95;3.35;;;;;;;4.98;77.01;98423.06;5073614;28;20035;-56
2022/01/05 08:40:20;;;;;;;6.78;3.60;;;;;;;4.98;77.02;98435.25;5073292;28;20036;-56
2022/01/05 08:42:46;;;;;;;8.60;4.32;;;;;;;4.95;76.91;98428.41;5073417;28;20099;-56
2022/01/05 08:45:12;;;;;;;7.95;4.75;;;;;;;5.06;76.84;98434.09;5073303;28;20078;-57
2022/01/05 08:47:38;;;;;;;7.85;4.60;;;;;;;5.16;76.35;98438.16;5073498;28;20044;-57
2022/01/05 08:50:04;;;;;;;8.02;4.45;;;;;;;5.13;76.56;98435.63;5072891;28;20044;-57
2022/01/05 08:52:30;;;;;;;7.55;3.85;;;;;;;5.15;76.31;98433.00;5073272;28;20036;-55
2022/01/05 08:54:55;;;;;;;7.45;4.05;;;;;;;5.36;75.93;98436.69;5073318;28;20041;-57
2022/01/05 08:57:21;;;;;;;7.03;3.92;;;;;;;5.29;75.77;98437.78;5073342;28;20039;-57
2022/01/05 08:59:47;;;;;;;9.27;4.00;;;;;;;5.29;75.75;98428.19;5072974;28;20047;-56
2022/01/05 09:02:16;;;;;;;8.48;4.53;;;;;;;5.26;75.96;98419.63;5073370;28;20036;-57
2022/01/05 09:04:42;;;;;;;9.85;5.50;;;;;;;5.35;75.74;98421.97;5072815;28;20119;-57
2022/01/05 09:07:08;;;;;;;13.95;8.05;;;;;;;5.28;75.85;98416.09;5073265;28;20111;-56
2022/01/05 09:09:33;;;;;;;14.43;8.15;;;;;;;5.35;75.80;98415.00;5073167;28;20044;-57
2022/01/05 09:11:59;;;;;;;17.08;10.50;;;;;;;5.22;76.15;98415.41;5073141;28;20111;-57
2022/01/05 09:14:24;;;;;;;13.18;5.85;;;;;;;5.13;76.47;98414.81;5073165;28;20029;-58
2022/01/05 09:16:49;;;;;;;8.25;4.75;;;;;;;4.92;77.13;98408.50;5072932;28;20043;-57
2022/01/05 09:19:15;;;;;;;8.60;4.55;;;;;;;4.95;77.22;98412.78;5073240;28;20399;-58
2022/01/05 09:21:40;;;;;;;12.13;7.00;;;;;;;4.99;77.33;98406.59;5073052;28;20036;-57
2022/01/05 09:24:06;;;;;;;29.80;17.15;;;;;;;5.10;77.21;98403.63;5072999;28;20035;-56
2022/01/05 09:26:32;;;;;;;22.85;13.27;;;;;;;5.18;76.59;98404.25;5073050;28;20442;-57
2022/01/05 09:28:58;;;;;;;11.77;7.80;;;;;;;5.31;75.92;98407.34;5073036;28;20056;-57
2022/01/05 09:31:23;;;;;;;10.43;5.78;;;;;;;5.44;75.71;98408.66;5075707;28;20066;-56
2022/01/05 09:33:49;;;;;;;8.82;4.75;;;;;;;5.59;75.38;98415.97;5076843;28;20524;-56
2022/01/05 09:36:19;;;;;;;8.50;4.80;;;;;;;5.69;74.70;98411.28;5076891;28;20055;-57
2022/01/05 09:44:03;;;;;;;5.82;4.18;;;;;;;5.92;73.53;98424.44;5080617;28;20047;-55
2022/01/05 09:46:43;;;;;;;8.23;4.75;;;;;;;5.91;73.48;98421.88;5096548;28;20073;-56
2022/01/05 09:49:09;;;;;;;9.38;5.03;;;;;;;5.66;73.77;98425.28;5097030;28;20078;-55
2022/01/05 09:51:37;;;;;;;6.63;3.67;;;;;;;5.64;73.60;98421.03;5096533;28;20036;-56
2022/01/05 09:54:03;;;;;;;7.53;3.97;;;;;;;5.69;73.65;98421.72;5096847;28;20473;-56
2022/01/05 09:56:31;;;;;;;6.43;4.15;;;;;;;5.55;73.66;98419.56;5097021;28;20036;-56
2022/01/05 09:59:01;;;;;;;6.05;3.05;;;;;;;5.66;73.50;98434.84;5096803;28;20116;-56
2022/01/05 10:01:35;;;;;;;4.82;2.70;;;;;;;5.46;73.30;98432.03;5096698;28;20046;-56
2022/01/05 10:04:02;;;;;;;8.88;3.45;;;;;;;5.52;73.76;98437.91;5096896;28;20020;-57
2022/01/05 10:06:28;;;;;;;8.02;3.53;;;;;;;5.57;73.77;98435.13;5096610;28;20028;-57
2022/01/05 10:08:53;;;;;;;8.85;3.85;;;;;;;5.56;73.53;98444.72;5096734;28;20039;-57
2022/01/05 10:11:23;;;;;;;7.57;4.20;;;;;;;5.57;73.48;98436.00;5096773;28;20028;-57
2022/01/05 10:13:52;;;;;;;9.25;5.53;;;;;;;5.59;73.20;98431.59;5096650;28;20040;-57
2022/01/05 10:16:17;;;;;;;12.93;4.50;;;;;;;5.46;73.27;98447.66;5096422;28;20077;-57
2022/01/05 10:18:44;;;;;;;18.90;8.77;;;;;;;5.49;73.17;98429.31;5096082;28;20028;-57
2022/01/05 10:21:14;;;;;;;9.43;5.05;;;;;;;5.67;72.82;98424.38;5096075;28;20036;-56
2022/01/05 10:23:51;;;;;;;9.35;4.90;;;;;;;5.84;72.10;98422.97;5096650;28;20383;-56
2022/01/05 10:26:17;;;;;;;78.18;48.00;;;;;;;5.71;71.62;98437.31;5096606;28;20036;-56
2022/01/05 10:28:45;;;;;;;17.92;12.73;;;;;;;5.78;71.94;98434.44;5096173;28;20032;-55
2022/01/05 10:31:20;;;;;;;11.32;7.32;;;;;;;5.88;70.82;98437.59;5096326;28;20035;-54
2022/01/05 10:33:46;;;;;;;18.52;10.50;;;;;;;5.88;71.26;98440.22;5096006;28;20047;-56
2022/01/05 10:36:12;;;;;;;15.45;9.32;;;;;;;5.71;71.72;98429.50;5096089;28;20055;-56
2022/01/05 10:38:38;;;;;;;9.63;5.85;;;;;;;5.49;72.08;98416.31;5096051;28;20121;-55
2022/01/05 10:41:20;;;;;;;8.07;4.45;;;;;;;5.22;72.43;98418.88;5094244;28;20036;-59
2022/01/05 10:44:24;;;;;;;9.38;6.95;;;;;;;5.28;72.92;98421.28;5095724;28;20024;-56
2022/01/05 10:46:53;;;;;;;7.63;4.82;;;;;;;5.24;73.41;98413.63;5013864;28;20133;-56
2022/01/05 10:49:32;;;;;;;9.63;5.57;;;;;;;5.24;73.55;98416.25;5081953;28;20480;-55
2022/01/05 10:52:23;;;;;;;7.97;4.68;;;;;;;5.28;72.28;98412.63;5095864;28;20028;-57
2022/01/05 10:54:49;;;;;;;7.30;5.18;;;;;;;5.28;72.27;98405.66;5084467;28;20379;-57
2022/01/05 10:57:16;;;;;;;7.88;3.83;;;;;;;5.37;71.63;98407.13;5095736;28;20032;-58
2022/01/05 10:59:46;;;;;;;7.10;4.57;;;;;;;5.58;71.48;98416.84;5095492;28;20066;-58
2022/01/05 11:02:22;;;;;;;10.00;3.80;;;;;;;5.61;70.71;98421.97;5094292;28;20024;-56
2022/01/05 11:04:49;;;;;;;5.65;3.35;;;;;;;5.66;70.69;98420.09;5095376;28;20043;-56
2022/01/05 11:07:23;;;;;;;7.40;3.95;;;;;;;5.71;70.02;98416.47;5095544;28;20119;-56
2022/01/05 11:09:58;;;;;;;9.85;4.20;;;;;;;5.74;69.73;98421.56;5094702;28;20476;-56
2022/01/05 11:12:36;;;;;;;13.20;8.23;;;;;;;5.72;69.40;98429.44;5094955;28;20071;-58
2022/01/05 11:15:27;;;;;;;14.35;8.68;;;;;;;5.68;68.58;98433.91;5095279;28;20090;-57
2022/01/05 11:18:10;;;;;;;9.88;6.93;;;;;;;5.69;68.40;98439.94;5095388;28;20047;-55
2022/01/05 11:20:43;;;;;;;8.82;6.38;;;;;;;5.77;68.71;98427.53;5095142;28;20035;-56
2022/01/05 11:23:10;;;;;;;7.80;4.15;;;;;;;5.60;68.48;98420.25;5095182;28;20023;-56
2022/01/05 11:25:37;;;;;;;10.15;3.72;;;;;;;5.69;68.50;98413.91;5095021;28;20036;-56
2022/01/05 11:28:05;;;;;;;6.85;3.45;;;;;;;5.49;68.00;98413.69;5095058;28;20541;-57
2022/01/05 11:30:31;;;;;;;6.65;2.63;;;;;;;5.58;68.28;98406.41;5095116;28;20063;-56
2022/01/05 11:32:57;;;;;;;4.95;2.40;;;;;;;5.45;68.64;98394.72;5092723;28;20047;-57
2022/01/05 11:35:23;;;;;;;5.53;2.70;;;;;;;5.54;69.02;98390.94;5094867;28;20164;-56
2022/01/05 11:37:49;;;;;;;6.07;2.70;;;;;;;5.58;68.83;98401.22;5094830;28;20467;-56
2022/01/05 11:40:16;;;;;;;7.28;3.13;;;;;;;5.53;68.95;98402.28;5094753;28;20044;-57
2022/01/05 11:42:42;;;;;;;8.05;4.38;;;;;;;5.57;68.98;98406.47;5094768;28;20059;-57
2022/01/05 11:45:09;;;;;;;5.55;3.05;;;;;;;5.57;69.14;98398.66;5094679;28;20059;-57
2022/01/05 11:47:36;;;;;;;3.75;2.42;;;;;;;5.53;68.94;98407.47;5094756;28;20036;-56